Terminal Aerodrome Forecast
Issued by NWS Sioux Falls, SD

Home | Current Version | Previous Version | Text Only | Print | Product List | Glossary Off
Versions: 1 2 3 4 5 6 7 8 9 10 11 12

000
FTUS43 KFSD 201100
TAFHON
TAF
KHON 201136Z 2012/2112 08004KT P6SM SCT250
     FM201600 14009KT P6SM SCT100
     FM210100 VRB03KT P6SM BKN070
     FM210500 34010KT P6SM SCT070=

USA.gov is the U.S. government's official web portal to all federal, state and local government web resources and services.